sensor_id;sensor_type;location;lat;lon;timestamp;temperature;humidity
22623;DHT22;11478;51.094;7.030;2024-01-06T00:01:02;6.20;99.90
22623;DHT22;11478;51.094;7.030;2024-01-06T00:03:30;6.20;99.90
22623;DHT22;11478;51.094;7.030;2024-01-06T00:05:56;6.20;99.90
22623;DHT22;11478;51.094;7.030;2024-01-06T00:08:22;6.20;99.90
22623;DHT22;11478;51.094;7.030;2024-01-06T00:10:49;6.20;99.90
22623;DHT22;11478;51.094;7.030;2024-01-06T00:13:14;6.20;99.90
22623;DHT22;11478;51.094;7.030;2024-01-06T00:15:40;6.20;99.90
22623;DHT22;11478;51.094;7.030;2024-01-06T00:18:06;6.20;99.90
22623;DHT22;11478;51.094;7.030;2024-01-06T00:20:34;6.20;99.90
22623;DHT22;11478;51.094;7.030;2024-01-06T00:23:00;6.20;99.90
22623;DHT22;11478;51.094;7.030;2024-01-06T00:25:26;6.20;99.90
22623;DHT22;11478;51.094;7.030;2024-01-06T00:27:52;6.20;99.90
22623;DHT22;11478;51.094;7.030;2024-01-06T00:30:17;6.20;99.90
22623;DHT22;11478;51.094;7.030;2024-01-06T00:32:43;6.20;99.90
22623;DHT22;11478;51.094;7.030;2024-01-06T00:35:09;6.20;99.90
22623;DHT22;11478;51.094;7.030;2024-01-06T00:37:35;6.30;99.90
22623;DHT22;11478;51.094;7.030;2024-01-06T00:40:01;6.30;99.90
22623;DHT22;11478;51.094;7.030;2024-01-06T00:42:27;6.30;99.90
22623;DHT22;11478;51.094;7.030;2024-01-06T00:44:53;6.30;99.90
22623;DHT22;11478;51.094;7.030;2024-01-06T00:47:19;6.30;99.90
22623;DHT22;11478;51.094;7.030;2024-01-06T00:49:47;6.30;99.90
22623;DHT22;11478;51.094;7.030;2024-01-06T00:52:13;6.30;99.90
22623;DHT22;11478;51.094;7.030;2024-01-06T00:54:41;6.30;99.90
22623;DHT22;11478;51.094;7.030;2024-01-06T00:57:07;6.30;99.90
22623;DHT22;11478;51.094;7.030;2024-01-06T00:59:33;6.30;99.90
22623;DHT22;11478;51.094;7.030;2024-01-06T01:01:59;6.30;99.90
22623;DHT22;11478;51.094;7.030;2024-01-06T01:04:26;6.30;99.90
22623;DHT22;11478;51.094;7.030;2024-01-06T01:06:51;6.30;99.90
22623;DHT22;11478;51.094;7.030;2024-01-06T01:09:17;6.30;99.90
22623;DHT22;11478;51.094;7.030;2024-01-06T01:11:50;6.30;99.90
22623;DHT22;11478;51.094;7.030;2024-01-06T01:14:16;6.30;99.90
22623;DHT22;11478;51.094;7.030;2024-01-06T01:16:44;6.30;99.90
22623;DHT22;11478;51.094;7.030;2024-01-06T01:19:15;6.30;99.90
22623;DHT22;11478;51.094;7.030;2024-01-06T01:21:41;6.30;99.90
22623;DHT22;11478;51.094;7.030;2024-01-06T01:24:07;6.30;99.90
22623;DHT22;11478;51.094;7.030;2024-01-06T01:26:33;6.30;99.90
22623;DHT22;11478;51.094;7.030;2024-01-06T01:29:01;6.30;99.90
22623;DHT22;11478;51.094;7.030;2024-01-06T01:31:27;6.30;99.90
22623;DHT22;11478;51.094;7.030;2024-01-06T01:33:53;6.30;99.90
22623;DHT22;11478;51.094;7.030;2024-01-06T01:36:19;6.30;99.90
22623;DHT22;11478;51.094;7.030;2024-01-06T01:38:45;6.30;99.90
22623;DHT22;11478;51.094;7.030;2024-01-06T01:41:11;6.30;99.90
22623;DHT22;11478;51.094;7.030;2024-01-06T01:43:39;6.30;99.90
22623;DHT22;11478;51.094;7.030;2024-01-06T01:46:05;6.30;99.90
22623;DHT22;11478;51.094;7.030;2024-01-06T01:48:32;6.30;99.90
22623;DHT22;11478;51.094;7.030;2024-01-06T01:50:59;6.30;99.90
22623;DHT22;11478;51.094;7.030;2024-01-06T01:53:27;6.30;99.90
22623;DHT22;11478;51.094;7.030;2024-01-06T01:55:53;6.30;99.90
22623;DHT22;11478;51.094;7.030;2024-01-06T01:58:20;6.30;99.90
22623;DHT22;11478;51.094;7.030;2024-01-06T02:00:46;6.30;99.90
22623;DHT22;11478;51.094;7.030;2024-01-06T02:03:13;6.30;99.90
22623;DHT22;11478;51.094;7.030;2024-01-06T02:05:41;6.30;99.90
22623;DHT22;11478;51.094;7.030;2024-01-06T02:08:06;6.30;99.90
22623;DHT22;11478;51.094;7.030;2024-01-06T02:10:35;6.30;99.90
22623;DHT22;11478;51.094;7.030;2024-01-06T02:13:11;6.30;99.90
22623;DHT22;11478;51.094;7.030;2024-01-06T02:15:38;6.30;99.90
22623;DHT22;11478;51.094;7.030;2024-01-06T02:18:04;6.30;99.90
22623;DHT22;11478;51.094;7.030;2024-01-06T02:20:32;6.30;99.90
22623;DHT22;11478;51.094;7.030;2024-01-06T02:22:58;6.30;99.90
22623;DHT22;11478;51.094;7.030;2024-01-06T02:25:26;6.30;99.90
22623;DHT22;11478;51.094;7.030;2024-01-06T02:27:52;6.30;99.90
22623;DHT22;11478;51.094;7.030;2024-01-06T02:30:21;6.40;99.90
22623;DHT22;11478;51.094;7.030;2024-01-06T02:32:46;6.40;99.90
22623;DHT22;11478;51.094;7.030;2024-01-06T02:35:14;6.40;99.90
22623;DHT22;11478;51.094;7.030;2024-01-06T02:37:39;6.40;99.90
22623;DHT22;11478;51.094;7.030;2024-01-06T02:40:15;6.40;99.90
22623;DHT22;11478;51.094;7.030;2024-01-06T02:42:41;6.40;99.90
22623;DHT22;11478;51.094;7.030;2024-01-06T02:45:07;6.40;99.90
22623;DHT22;11478;51.094;7.030;2024-01-06T02:47:34;6.40;99.90
22623;DHT22;11478;51.094;7.030;2024-01-06T02:50:06;6.40;99.90
22623;DHT22;11478;51.094;7.030;2024-01-06T02:52:32;6.40;99.90
22623;DHT22;11478;51.094;7.030;2024-01-06T02:55:01;6.40;99.90
22623;DHT22;11478;51.094;7.030;2024-01-06T02:57:29;6.40;99.90
22623;DHT22;11478;51.094;7.030;2024-01-06T02:59:57;6.40;99.90
22623;DHT22;11478;51.094;7.030;2024-01-06T03:02:23;6.40;99.90
22623;DHT22;11478;51.094;7.030;2024-01-06T03:04:49;6.40;99.90
22623;DHT22;11478;51.094;7.030;2024-01-06T03:07:16;6.40;99.90
22623;DHT22;11478;51.094;7.030;2024-01-06T03:09:43;6.40;99.90
22623;DHT22;11478;51.094;7.030;2024-01-06T03:12:09;6.40;99.90
22623;DHT22;11478;51.094;7.030;2024-01-06T03:14:36;6.40;99.90
22623;DHT22;11478;51.094;7.030;2024-01-06T03:17:01;6.40;99.90
22623;DHT22;11478;51.094;7.030;2024-01-06T03:19:30;6.40;99.90
22623;DHT22;11478;51.094;7.030;2024-01-06T03:21:56;6.40;99.90
22623;DHT22;11478;51.094;7.030;2024-01-06T03:24:29;6.40;99.90
22623;DHT22;11478;51.094;7.030;2024-01-06T03:26:56;6.40;99.90
22623;DHT22;11478;51.094;7.030;2024-01-06T03:29:23;6.40;99.90
22623;DHT22;11478;51.094;7.030;2024-01-06T03:31:49;6.40;99.90
22623;DHT22;11478;51.094;7.030;2024-01-06T03:34:18;6.40;99.90
22623;DHT22;11478;51.094;7.030;2024-01-06T03:36:44;6.40;99.90
22623;DHT22;11478;51.094;7.030;2024-01-06T03:39:09;6.40;99.90
22623;DHT22;11478;51.094;7.030;2024-01-06T03:41:36;6.40;99.90
22623;DHT22;11478;51.094;7.030;2024-01-06T03:44:02;6.40;99.90
22623;DHT22;11478;51.094;7.030;2024-01-06T03:46:28;6.40;99.90
22623;DHT22;11478;51.094;7.030;2024-01-06T03:48:56;6.40;99.90
22623;DHT22;11478;51.094;7.030;2024-01-06T03:51:22;6.50;99.90
22623;DHT22;11478;51.094;7.030;2024-01-06T03:53:48;6.40;99.90
22623;DHT22;11478;51.094;7.030;2024-01-06T03:56:14;6.40;99.90
22623;DHT22;11478;51.094;7.030;2024-01-06T03:58:41;6.40;99.90
22623;DHT22;11478;51.094;7.030;2024-01-06T04:01:10;6.50;99.90
22623;DHT22;11478;51.094;7.030;2024-01-06T04:03:36;6.40;99.90
22623;DHT22;11478;51.094;7.030;2024-01-06T04:06:02;6.40;99.90
22623;DHT22;11478;51.094;7.030;2024-01-06T04:08:28;6.40;99.90
22623;DHT22;11478;51.094;7.030;2024-01-06T04:10:54;6.40;99.90
22623;DHT22;11478;51.094;7.030;2024-01-06T04:13:22;6.40;99.90
22623;DHT22;11478;51.094;7.030;2024-01-06T04:15:50;6.40;99.90
22623;DHT22;11478;51.094;7.030;2024-01-06T04:18:17;6.40;99.90
22623;DHT22;11478;51.094;7.030;2024-01-06T04:20:42;6.40;99.90
22623;DHT22;11478;51.094;7.030;2024-01-06T04:23:09;6.40;99.90
22623;DHT22;11478;51.094;7.030;2024-01-06T04:25:35;6.40;99.90
22623;DHT22;11478;51.094;7.030;2024-01-06T04:28:01;6.50;99.90
22623;DHT22;11478;51.094;7.030;2024-01-06T04:30:27;6.50;99.90
22623;DHT22;11478;51.094;7.030;2024-01-06T04:32:53;6.50;99.90
22623;DHT22;11478;51.094;7.030;2024-01-06T04:35:20;6.50;99.90
22623;DHT22;11478;51.094;7.030;2024-01-06T04:37:47;6.50;99.90
22623;DHT22;11478;51.094;7.030;2024-01-06T04:40:13;6.50;99.90
22623;DHT22;11478;51.094;7.030;2024-01-06T04:42:40;6.50;99.90
22623;DHT22;11478;51.094;7.030;2024-01-06T04:45:06;6.50;99.90
22623;DHT22;11478;51.094;7.030;2024-01-06T04:47:34;6.50;99.90
22623;DHT22;11478;51.094;7.030;2024-01-06T04:49:59;6.50;99.90
22623;DHT22;11478;51.094;7.030;2024-01-06T04:52:25;6.50;99.90
22623;DHT22;11478;51.094;7.030;2024-01-06T04:54:52;6.50;99.90
22623;DHT22;11478;51.094;7.030;2024-01-06T04:57:18;6.50;99.90
22623;DHT22;11478;51.094;7.030;2024-01-06T04:59:46;6.50;99.90
22623;DHT22;11478;51.094;7.030;2024-01-06T05:02:12;6.50;99.90
22623;DHT22;11478;51.094;7.030;2024-01-06T05:04:54;6.50;99.90
22623;DHT22;11478;51.094;7.030;2024-01-06T05:07:20;6.50;99.90
22623;DHT22;11478;51.094;7.030;2024-01-06T05:09:49;6.50;99.90
22623;DHT22;11478;51.094;7.030;2024-01-06T05:12:15;6.40;99.90
22623;DHT22;11478;51.094;7.030;2024-01-06T05:14:41;6.30;99.90
22623;DHT22;11478;51.094;7.030;2024-01-06T05:17:06;6.20;99.90
22623;DHT22;11478;51.094;7.030;2024-01-06T05:19:39;6.20;99.90
22623;DHT22;11478;51.094;7.030;2024-01-06T05:22:05;6.10;99.90
22623;DHT22;11478;51.094;7.030;2024-01-06T05:24:36;6.00;99.90
22623;DHT22;11478;51.094;7.030;2024-01-06T05:27:02;6.00;99.90
22623;DHT22;11478;51.094;7.030;2024-01-06T05:29:29;5.90;99.90
22623;DHT22;11478;51.094;7.030;2024-01-06T05:31:55;5.90;99.90
22623;DHT22;11478;51.094;7.030;2024-01-06T05:34:22;5.90;99.90
22623;DHT22;11478;51.094;7.030;2024-01-06T05:36:48;5.80;99.90
22623;DHT22;11478;51.094;7.030;2024-01-06T05:39:23;5.70;99.90
22623;DHT22;11478;51.094;7.030;2024-01-06T05:41:50;5.70;99.90
22623;DHT22;11478;51.094;7.030;2024-01-06T05:44:44;5.70;99.90
22623;DHT22;11478;51.094;7.030;2024-01-06T05:47:10;5.70;99.90
22623;DHT22;11478;51.094;7.030;2024-01-06T05:49:42;5.60;99.90
22623;DHT22;11478;51.094;7.030;2024-01-06T05:52:09;5.60;99.90
22623;DHT22;11478;51.094;7.030;2024-01-06T05:54:35;5.50;99.90
22623;DHT22;11478;51.094;7.030;2024-01-06T05:57:01;5.40;99.90
22623;DHT22;11478;51.094;7.030;2024-01-06T05:59:33;5.40;99.90
22623;DHT22;11478;51.094;7.030;2024-01-06T06:01:58;5.40;99.90
22623;DHT22;11478;51.094;7.030;2024-01-06T06:04:24;5.40;99.90
22623;DHT22;11478;51.094;7.030;2024-01-06T06:06:51;5.40;99.90
22623;DHT22;11478;51.094;7.030;2024-01-06T06:09:26;5.30;99.90
22623;DHT22;11478;51.094;7.030;2024-01-06T06:11:54;5.30;99.90
22623;DHT22;11478;51.094;7.030;2024-01-06T06:14:23;5.30;99.90
22623;DHT22;11478;51.094;7.030;2024-01-06T06:16:52;5.20;99.90
22623;DHT22;11478;51.094;7.030;2024-01-06T06:19:19;5.20;99.90
22623;DHT22;11478;51.094;7.030;2024-01-06T06:21:45;5.20;99.90
22623;DHT22;11478;51.094;7.030;2024-01-06T06:24:11;5.20;99.90
22623;DHT22;11478;51.094;7.030;2024-01-06T06:26:37;5.20;99.90
22623;DHT22;11478;51.094;7.030;2024-01-06T06:29:10;5.20;99.90
22623;DHT22;11478;51.094;7.030;2024-01-06T06:31:36;5.10;99.90
22623;DHT22;11478;51.094;7.030;2024-01-06T06:34:03;5.10;99.90
22623;DHT22;11478;51.094;7.030;2024-01-06T06:36:29;5.10;99.90
22623;DHT22;11478;51.094;7.030;2024-01-06T06:38:55;5.20;99.90
22623;DHT22;11478;51.094;7.030;2024-01-06T06:41:23;5.20;99.90
22623;DHT22;11478;51.094;7.030;2024-01-06T06:44:01;5.20;99.90
22623;DHT22;11478;51.094;7.030;2024-01-06T06:46:27;5.20;99.90
22623;DHT22;11478;51.094;7.030;2024-01-06T06:48:53;5.20;99.90
22623;DHT22;11478;51.094;7.030;2024-01-06T06:51:19;5.20;99.90
22623;DHT22;11478;51.094;7.030;2024-01-06T06:53:47;5.20;99.90
22623;DHT22;11478;51.094;7.030;2024-01-06T06:56:13;5.30;99.90
22623;DHT22;11478;51.094;7.030;2024-01-06T06:58:42;5.20;99.90
22623;DHT22;11478;51.094;7.030;2024-01-06T07:01:08;5.20;99.90
22623;DHT22;11478;51.094;7.030;2024-01-06T07:03:34;5.20;99.90
22623;DHT22;11478;51.094;7.030;2024-01-06T07:06:00;5.20;99.90
22623;DHT22;11478;51.094;7.030;2024-01-06T07:08:25;5.20;99.90
22623;DHT22;11478;51.094;7.030;2024-01-06T07:11:02;5.20;99.90
22623;DHT22;11478;51.094;7.030;2024-01-06T07:13:28;5.20;99.90
22623;DHT22;11478;51.094;7.030;2024-01-06T07:15:54;5.20;99.90
22623;DHT22;11478;51.094;7.030;2024-01-06T07:18:20;5.20;99.90
22623;DHT22;11478;51.094;7.030;2024-01-06T07:20:49;5.20;99.90
22623;DHT22;11478;51.094;7.030;2024-01-06T07:23:14;5.10;99.90
22623;DHT22;11478;51.094;7.030;2024-01-06T07:25:44;5.10;99.90
22623;DHT22;11478;51.094;7.030;2024-01-06T07:28:11;5.10;99.90
22623;DHT22;11478;51.094;7.030;2024-01-06T07:30:41;5.00;99.90
22623;DHT22;11478;51.094;7.030;2024-01-06T07:33:07;5.00;99.90
22623;DHT22;11478;51.094;7.030;2024-01-06T07:35:38;5.10;99.90
22623;DHT22;11478;51.094;7.030;2024-01-06T07:38:08;5.00;99.90
22623;DHT22;11478;51.094;7.030;2024-01-06T07:40:41;5.00;99.90
22623;DHT22;11478;51.094;7.030;2024-01-06T07:43:09;5.10;99.90
22623;DHT22;11478;51.094;7.030;2024-01-06T07:45:35;5.10;99.90
22623;DHT22;11478;51.094;7.030;2024-01-06T07:48:01;5.10;99.90
22623;DHT22;11478;51.094;7.030;2024-01-06T07:50:34;5.10;99.90
22623;DHT22;11478;51.094;7.030;2024-01-06T07:53:00;5.20;99.90
22623;DHT22;11478;51.094;7.030;2024-01-06T07:55:33;5.10;99.90
22623;DHT22;11478;51.094;7.030;2024-01-06T07:57:59;5.20;99.90
22623;DHT22;11478;51.094;7.030;2024-01-06T08:00:25;5.20;99.90
22623;DHT22;11478;51.094;7.030;2024-01-06T08:02:51;5.20;99.90
22623;DHT22;11478;51.094;7.030;2024-01-06T08:05:17;5.20;99.90
22623;DHT22;11478;51.094;7.030;2024-01-06T08:07:43;5.20;99.90
22623;DHT22;11478;51.094;7.030;2024-01-06T08:10:14;5.20;99.90
22623;DHT22;11478;51.094;7.030;2024-01-06T08:12:39;5.20;99.90
22623;DHT22;11478;51.094;7.030;2024-01-06T08:15:07;5.20;99.90
22623;DHT22;11478;51.094;7.030;2024-01-06T08:17:35;5.20;99.90
22623;DHT22;11478;51.094;7.030;2024-01-06T08:20:01;5.10;99.90
22623;DHT22;11478;51.094;7.030;2024-01-06T08:22:28;5.10;99.90
22623;DHT22;11478;51.094;7.030;2024-01-06T08:24:57;5.10;99.90
22623;DHT22;11478;51.094;7.030;2024-01-06T08:27:23;5.10;99.90
22623;DHT22;11478;51.094;7.030;2024-01-06T08:29:53;5.10;99.90
22623;DHT22;11478;51.094;7.030;2024-01-06T08:32:19;5.10;99.90
22623;DHT22;11478;51.094;7.030;2024-01-06T08:35:00;5.10;99.90
22623;DHT22;11478;51.094;7.030;2024-01-06T08:37:29;5.10;99.90
22623;DHT22;11478;51.094;7.030;2024-01-06T08:39:59;5.10;99.90
22623;DHT22;11478;51.094;7.030;2024-01-06T08:42:25;5.20;99.90
22623;DHT22;11478;51.094;7.030;2024-01-06T08:44:52;5.20;99.90
22623;DHT22;11478;51.094;7.030;2024-01-06T08:47:17;5.20;99.90
22623;DHT22;11478;51.094;7.030;2024-01-06T08:49:44;5.20;99.90
22623;DHT22;11478;51.094;7.030;2024-01-06T08:52:10;5.20;99.90
22623;DHT22;11478;51.094;7.030;2024-01-06T08:54:36;5.10;99.90
22623;DHT22;11478;51.094;7.030;2024-01-06T08:57:02;5.10;99.90
22623;DHT22;11478;51.094;7.030;2024-01-06T08:59:31;5.10;99.90
22623;DHT22;11478;51.094;7.030;2024-01-06T09:02:00;5.10;99.90
22623;DHT22;11478;51.094;7.030;2024-01-06T09:04:32;5.10;99.90
22623;DHT22;11478;51.094;7.030;2024-01-06T09:07:01;5.10;99.90
22623;DHT22;11478;51.094;7.030;2024-01-06T09:09:34;5.10;99.90
22623;DHT22;11478;51.094;7.030;2024-01-06T09:11:59;5.10;99.90
22623;DHT22;11478;51.094;7.030;2024-01-06T09:14:26;5.10;99.90
22623;DHT22;11478;51.094;7.030;2024-01-06T09:16:52;5.10;99.90
22623;DHT22;11478;51.094;7.030;2024-01-06T09:19:18;5.10;99.90
22623;DHT22;11478;51.094;7.030;2024-01-06T09:21:44;5.10;99.90
22623;DHT22;11478;51.094;7.030;2024-01-06T09:24:10;5.10;99.90
22623;DHT22;11478;51.094;7.030;2024-01-06T09:26:36;5.00;99.90
22623;DHT22;11478;51.094;7.030;2024-01-06T09:29:02;5.00;99.90
22623;DHT22;11478;51.094;7.030;2024-01-06T09:31:34;5.00;99.90
22623;DHT22;11478;51.094;7.030;2024-01-06T09:34:01;5.00;99.90
22623;DHT22;11478;51.094;7.030;2024-01-06T09:36:32;5.00;99.90
22623;DHT22;11478;51.094;7.030;2024-01-06T09:39:02;5.10;99.90
22623;DHT22;11478;51.094;7.030;2024-01-06T09:41:31;5.00;99.90
22623;DHT22;11478;51.094;7.030;2024-01-06T09:43:57;5.00;99.90
22623;DHT22;11478;51.094;7.030;2024-01-06T09:46:38;5.00;99.90
22623;DHT22;11478;51.094;7.030;2024-01-06T09:49:06;5.00;99.90
22623;DHT22;11478;51.094;7.030;2024-01-06T09:51:35;5.00;99.90
22623;DHT22;11478;51.094;7.030;2024-01-06T09:54:06;5.00;99.90
22623;DHT22;11478;51.094;7.030;2024-01-06T09:56:34;5.00;99.90
22623;DHT22;11478;51.094;7.030;2024-01-06T09:59:04;5.00;99.90
22623;DHT22;11478;51.094;7.030;2024-01-06T10:01:33;5.00;99.90
22623;DHT22;11478;51.094;7.030;2024-01-06T10:04:01;5.00;99.90
22623;DHT22;11478;51.094;7.030;2024-01-06T10:06:31;5.00;99.90
22623;DHT22;11478;51.094;7.030;2024-01-06T10:08:58;5.00;99.90
22623;DHT22;11478;51.094;7.030;2024-01-06T10:11:26;5.00;99.90
22623;DHT22;11478;51.094;7.030;2024-01-06T10:13:52;4.90;99.90
22623;DHT22;11478;51.094;7.030;2024-01-06T10:16:21;4.90;99.90
22623;DHT22;11478;51.094;7.030;2024-01-06T10:18:48;4.90;99.90
22623;DHT22;11478;51.094;7.030;2024-01-06T10:21:14;4.90;99.90
22623;DHT22;11478;51.094;7.030;2024-01-06T10:23:43;4.90;99.90
22623;DHT22;11478;51.094;7.030;2024-01-06T10:26:14;4.90;99.90
22623;DHT22;11478;51.094;7.030;2024-01-06T10:28:40;4.80;99.90
22623;DHT22;11478;51.094;7.030;2024-01-06T10:31:08;4.80;99.90
22623;DHT22;11478;51.094;7.030;2024-01-06T10:33:35;4.80;99.90
22623;DHT22;11478;51.094;7.030;2024-01-06T10:36:07;4.80;99.90
22623;DHT22;11478;51.094;7.030;2024-01-06T10:38:35;4.80;99.90
22623;DHT22;11478;51.094;7.030;2024-01-06T10:41:04;4.80;99.90
22623;DHT22;11478;51.094;7.030;2024-01-06T10:43:36;4.80;99.90
22623;DHT22;11478;51.094;7.030;2024-01-06T10:46:09;4.80;99.90
22623;DHT22;11478;51.094;7.030;2024-01-06T10:48:42;4.80;99.90
22623;DHT22;11478;51.094;7.030;2024-01-06T10:51:12;4.80;99.90
22623;DHT22;11478;51.094;7.030;2024-01-06T10:53:43;4.80;99.90
22623;DHT22;11478;51.094;7.030;2024-01-06T10:56:09;4.80;99.90
22623;DHT22;11478;51.094;7.030;2024-01-06T11:09:19;4.80;99.90
22623;DHT22;11478;51.094;7.030;2024-01-06T11:11:48;4.80;99.90
22623;DHT22;11478;51.094;7.030;2024-01-06T11:14:20;4.80;99.90
22623;DHT22;11478;51.094;7.030;2024-01-06T11:16:46;4.80;99.90
22623;DHT22;11478;51.094;7.030;2024-01-06T11:24:49;4.80;99.90
22623;DHT22;11478;51.094;7.030;2024-01-06T11:27:27;4.70;99.90
22623;DHT22;11478;51.094;7.030;2024-01-06T11:30:00;4.80;99.90
22623;DHT22;11478;51.094;7.030;2024-01-06T11:32:37;4.70;99.90
22623;DHT22;11478;51.094;7.030;2024-01-06T11:35:12;4.70;99.90
22623;DHT22;11478;51.094;7.030;2024-01-06T11:43:13;4.70;99.90
22623;DHT22;11478;51.094;7.030;2024-01-06T11:45:41;4.70;99.90
22623;DHT22;11478;51.094;7.030;2024-01-06T11:48:10;4.70;99.90
22623;DHT22;11478;51.094;7.030;2024-01-06T11:50:38;4.60;99.90
22623;DHT22;11478;51.094;7.030;2024-01-06T11:53:08;4.60;99.90
22623;DHT22;11478;51.094;7.030;2024-01-06T11:55:39;4.60;99.90
22623;DHT22;11478;51.094;7.030;2024-01-06T11:58:08;4.60;99.90
22623;DHT22;11478;51.094;7.030;2024-01-06T12:00:39;4.60;99.90
22623;DHT22;11478;51.094;7.030;2024-01-06T12:03:06;4.60;99.90
22623;DHT22;11478;51.094;7.030;2024-01-06T12:05:32;4.60;99.90
22623;DHT22;11478;51.094;7.030;2024-01-06T12:08:01;4.60;99.90
22623;DHT22;11478;51.094;7.030;2024-01-06T12:10:28;4.60;99.90
22623;DHT22;11478;51.094;7.030;2024-01-06T12:13:03;4.60;99.90
22623;DHT22;11478;51.094;7.030;2024-01-06T12:15:36;4.60;99.90
22623;DHT22;11478;51.094;7.030;2024-01-06T12:18:06;4.50;99.90
22623;DHT22;11478;51.094;7.030;2024-01-06T12:20:32;4.40;99.90
22623;DHT22;11478;51.094;7.030;2024-01-06T12:22:59;4.40;99.90
22623;DHT22;11478;51.094;7.030;2024-01-06T12:25:26;4.30;99.90
22623;DHT22;11478;51.094;7.030;2024-01-06T12:27:54;4.30;99.90
22623;DHT22;11478;51.094;7.030;2024-01-06T12:30:22;4.30;99.90
22623;DHT22;11478;51.094;7.030;2024-01-06T12:32:49;4.30;99.90
22623;DHT22;11478;51.094;7.030;2024-01-06T12:35:15;4.20;99.90
22623;DHT22;11478;51.094;7.030;2024-01-06T12:37:42;4.30;99.90
22623;DHT22;11478;51.094;7.030;2024-01-06T12:40:09;4.30;99.90
22623;DHT22;11478;51.094;7.030;2024-01-06T12:42:37;4.20;99.90
22623;DHT22;11478;51.094;7.030;2024-01-06T12:45:04;4.20;99.90
22623;DHT22;11478;51.094;7.030;2024-01-06T12:47:30;4.30;99.90
22623;DHT22;11478;51.094;7.030;2024-01-06T12:49:56;4.20;99.90
22623;DHT22;11478;51.094;7.030;2024-01-06T12:52:29;4.20;99.90
22623;DHT22;11478;51.094;7.030;2024-01-06T12:54:55;4.20;99.90
22623;DHT22;11478;51.094;7.030;2024-01-06T12:57:24;4.20;99.90
22623;DHT22;11478;51.094;7.030;2024-01-06T12:59:51;4.30;99.90
22623;DHT22;11478;51.094;7.030;2024-01-06T13:02:17;4.30;99.90
22623;DHT22;11478;51.094;7.030;2024-01-06T13:04:42;4.40;99.90
22623;DHT22;11478;51.094;7.030;2024-01-06T13:07:09;4.40;99.90
22623;DHT22;11478;51.094;7.030;2024-01-06T13:09:42;4.40;99.90
22623;DHT22;11478;51.094;7.030;2024-01-06T13:12:09;4.40;99.90
22623;DHT22;11478;51.094;7.030;2024-01-06T13:14:35;4.40;99.90
22623;DHT22;11478;51.094;7.030;2024-01-06T13:17:03;4.40;99.90
22623;DHT22;11478;51.094;7.030;2024-01-06T13:19:29;4.30;99.90
22623;DHT22;11478;51.094;7.030;2024-01-06T13:21:55;4.30;99.90
22623;DHT22;11478;51.094;7.030;2024-01-06T13:24:22;4.30;99.90
22623;DHT22;11478;51.094;7.030;2024-01-06T13:26:49;4.30;99.90
22623;DHT22;11478;51.094;7.030;2024-01-06T13:29:14;4.30;99.90
22623;DHT22;11478;51.094;7.030;2024-01-06T13:31:40;4.20;99.90
22623;DHT22;11478;51.094;7.030;2024-01-06T13:34:10;4.20;99.90
22623;DHT22;11478;51.094;7.030;2024-01-06T13:36:41;4.20;99.90
22623;DHT22;11478;51.094;7.030;2024-01-06T13:39:15;4.00;99.90
22623;DHT22;11478;51.094;7.030;2024-01-06T13:41:48;4.00;99.90
22623;DHT22;11478;51.094;7.030;2024-01-06T13:44:15;4.00;99.90
22623;DHT22;11478;51.094;7.030;2024-01-06T13:46:41;3.90;99.90
22623;DHT22;11478;51.094;7.030;2024-01-06T13:49:15;3.90;99.90
22623;DHT22;11478;51.094;7.030;2024-01-06T13:51:43;3.90;99.90
22623;DHT22;11478;51.094;7.030;2024-01-06T13:54:10;3.90;99.90
22623;DHT22;11478;51.094;7.030;2024-01-06T13:56:36;3.90;99.90
22623;DHT22;11478;51.094;7.030;2024-01-06T13:59:12;3.90;99.90
22623;DHT22;11478;51.094;7.030;2024-01-06T14:01:41;3.90;99.90
22623;DHT22;11478;51.094;7.030;2024-01-06T14:04:09;3.90;99.90
22623;DHT22;11478;51.094;7.030;2024-01-06T14:06:35;3.90;99.90
22623;DHT22;11478;51.094;7.030;2024-01-06T14:09:16;3.80;99.90
22623;DHT22;11478;51.094;7.030;2024-01-06T14:11:44;3.80;99.90
22623;DHT22;11478;51.094;7.030;2024-01-06T14:14:10;3.70;99.90
22623;DHT22;11478;51.094;7.030;2024-01-06T14:16:36;3.70;99.90
22623;DHT22;11478;51.094;7.030;2024-01-06T14:19:06;3.60;99.90
22623;DHT22;11478;51.094;7.030;2024-01-06T14:21:32;3.60;99.90
22623;DHT22;11478;51.094;7.030;2024-01-06T14:23:57;3.60;99.90
22623;DHT22;11478;51.094;7.030;2024-01-06T14:26:25;3.60;99.90
22623;DHT22;11478;51.094;7.030;2024-01-06T14:28:51;3.60;99.90
22623;DHT22;11478;51.094;7.030;2024-01-06T14:31:17;3.60;99.90
22623;DHT22;11478;51.094;7.030;2024-01-06T14:33:43;3.60;99.90
22623;DHT22;11478;51.094;7.030;2024-01-06T14:36:15;3.60;99.90
22623;DHT22;11478;51.094;7.030;2024-01-06T14:38:44;3.60;99.90
22623;DHT22;11478;51.094;7.030;2024-01-06T14:41:14;3.50;99.90
22623;DHT22;11478;51.094;7.030;2024-01-06T14:43:44;3.40;99.90
22623;DHT22;11478;51.094;7.030;2024-01-06T14:46:14;3.40;99.90
22623;DHT22;11478;51.094;7.030;2024-01-06T14:48:42;3.40;99.90
22623;DHT22;11478;51.094;7.030;2024-01-06T14:51:31;3.40;99.90
22623;DHT22;11478;51.094;7.030;2024-01-06T14:53:57;3.40;99.90
22623;DHT22;11478;51.094;7.030;2024-01-06T14:56:45;3.40;99.90
22623;DHT22;11478;51.094;7.030;2024-01-06T14:59:12;3.40;99.90
22623;DHT22;11478;51.094;7.030;2024-01-06T15:01:51;3.40;99.90
22623;DHT22;11478;51.094;7.030;2024-01-06T15:04:17;3.40;99.90
22623;DHT22;11478;51.094;7.030;2024-01-06T15:07:03;3.40;99.90
22623;DHT22;11478;51.094;7.030;2024-01-06T15:09:29;3.40;99.90
22623;DHT22;11478;51.094;7.030;2024-01-06T15:12:13;3.40;99.90
22623;DHT22;11478;51.094;7.030;2024-01-06T15:14:39;3.40;99.90
22623;DHT22;11478;51.094;7.030;2024-01-06T15:17:19;3.40;99.90
22623;DHT22;11478;51.094;7.030;2024-01-06T15:19:47;3.40;99.90
22623;DHT22;11478;51.094;7.030;2024-01-06T15:22:48;3.40;99.90
22623;DHT22;11478;51.094;7.030;2024-01-06T15:28:55;3.30;99.90
22623;DHT22;11478;51.094;7.030;2024-01-06T15:31:37;3.40;99.90
22623;DHT22;11478;51.094;7.030;2024-01-06T15:34:25;3.30;99.90
22623;DHT22;11478;51.094;7.030;2024-01-06T15:37:07;3.30;99.90
22623;DHT22;11478;51.094;7.030;2024-01-06T15:39:33;3.30;99.90
22623;DHT22;11478;51.094;7.030;2024-01-06T15:42:18;3.30;99.90
22623;DHT22;11478;51.094;7.030;2024-01-06T15:44:44;3.20;99.90
22623;DHT22;11478;51.094;7.030;2024-01-06T15:47:31;3.20;99.90
22623;DHT22;11478;51.094;7.030;2024-01-06T15:49:56;3.10;99.90
22623;DHT22;11478;51.094;7.030;2024-01-06T15:52:36;3.20;99.90
22623;DHT22;11478;51.094;7.030;2024-01-06T15:55:03;3.20;99.90
22623;DHT22;11478;51.094;7.030;2024-01-06T16:01:04;3.30;99.90
22623;DHT22;11478;51.094;7.030;2024-01-06T16:04:06;3.30;99.90
22623;DHT22;11478;51.094;7.030;2024-01-06T16:06:32;3.30;99.90
22623;DHT22;11478;51.094;7.030;2024-01-06T16:09:35;3.30;99.90
22623;DHT22;11478;51.094;7.030;2024-01-06T16:12:33;3.20;99.90
22623;DHT22;11478;51.094;7.030;2024-01-06T16:14:59;3.10;99.90
22623;DHT22;11478;51.094;7.030;2024-01-06T16:17:25;3.10;99.90
22623;DHT22;11478;51.094;7.030;2024-01-06T16:19:51;3.20;99.90
22623;DHT22;11478;51.094;7.030;2024-01-06T16:22:19;3.20;99.90